createdAt,value
2022-11-08T00:02:15.721Z,22.58
2022-11-08T00:04:42.534Z,24.17
2022-11-08T00:07:30.468Z,28.75
2022-11-08T00:10:15.629Z,33.38
2022-11-08T00:13:01.288Z,37.80
2022-11-08T00:15:28.237Z,28.98
2022-11-08T00:17:56.745Z,27.85
2022-11-08T00:20:23.503Z,28.98
2022-11-08T00:22:50.219Z,28.83
2022-11-08T00:25:17.046Z,30.70
2022-11-08T00:27:43.756Z,30.10
2022-11-08T00:30:10.738Z,31.67
2022-11-08T00:32:37.559Z,30.80
2022-11-08T00:35:04.608Z,33.92
2022-11-08T00:37:31.312Z,36.10
2022-11-08T00:39:58.054Z,35.00
2022-11-08T00:42:24.846Z,39.83
2022-11-08T00:44:51.632Z,27.20
2022-11-08T00:47:18.560Z,33.80
2022-11-08T00:49:45.374Z,34.67
2022-11-08T00:52:12.246Z,27.05
2022-11-08T00:54:39.038Z,31.48
2022-11-08T00:57:05.888Z,34.40
2022-11-08T00:59:32.644Z,38.75
2022-11-08T01:01:59.601Z,41.92
2022-11-08T01:04:45.181Z,40.13
2022-11-08T01:07:30.302Z,41.25
2022-11-08T01:09:57.101Z,41.58
2022-11-08T01:12:23.880Z,33.55
2022-11-08T01:14:50.769Z,41.05
2022-11-08T01:17:17.470Z,37.65
2022-11-08T01:19:44.263Z,46.55
2022-11-08T01:22:11.000Z,35.67
2022-11-08T01:24:37.868Z,36.40
2022-11-08T01:27:04.564Z,25.45
2022-11-08T01:29:31.331Z,37.88
2022-11-08T01:31:58.048Z,31.92
2022-11-08T01:34:27.271Z,28.85
2022-11-08T01:36:54.052Z,38.28
2022-11-08T01:39:20.764Z,38.83
2022-11-08T01:41:47.562Z,40.72
2022-11-08T01:47:01.911Z,34.38
2022-11-08T01:49:44.202Z,37.85
2022-11-08T01:52:34.592Z,38.78
2022-11-08T01:55:04.322Z,36.47
2022-11-08T01:57:50.590Z,43.63
2022-11-08T02:00:18.326Z,42.30
2022-11-08T02:02:51.732Z,36.20
2022-11-08T02:05:25.958Z,46.28
2022-11-08T02:07:55.641Z,59.05
2022-11-08T02:10:25.077Z,47.03
2022-11-08T02:13:20.818Z,42.10
2022-11-08T02:15:47.712Z,40.75
2022-11-08T02:18:16.680Z,43.88
2022-11-08T02:21:06.649Z,47.92
2022-11-08T02:23:45.388Z,42.83
2022-11-08T02:26:32.857Z,42.15
2022-11-08T02:29:20.185Z,37.08
2022-11-08T02:31:46.986Z,40.45
2022-11-08T02:34:13.801Z,36.00
2022-11-08T02:36:40.970Z,42.70
2022-11-08T02:39:07.652Z,45.03
2022-11-08T02:41:34.433Z,34.88
2022-11-08T02:44:01.200Z,40.47
2022-11-08T02:46:28.041Z,33.20
2022-11-08T02:48:54.847Z,42.47
2022-11-08T02:51:21.568Z,47.53
2022-11-08T02:53:48.800Z,32.92
2022-11-08T02:56:15.661Z,39.20
2022-11-08T02:58:42.424Z,42.95
2022-11-08T03:01:09.189Z,38.47
2022-11-08T03:03:36.032Z,37.65
2022-11-08T03:06:03.775Z,38.25
2022-11-08T03:08:30.532Z,33.60
2022-11-08T03:11:00.201Z,30.42
2022-11-08T03:13:26.983Z,40.58
2022-11-08T03:15:53.808Z,34.05
2022-11-08T03:18:20.816Z,33.97
2022-11-08T03:20:47.720Z,53.85
2022-11-08T03:23:14.551Z,31.60
2022-11-08T03:25:41.237Z,35.00
2022-11-08T03:28:09.351Z,35.92
2022-11-08T03:30:36.929Z,43.25
2022-11-08T03:35:49.633Z,34.10
2022-11-08T03:38:17.222Z,32.65
2022-11-08T03:40:46.193Z,34.50
2022-11-08T03:43:31.644Z,34.42
2022-11-08T03:45:58.725Z,36.55
2022-11-08T03:48:25.482Z,33.30
2022-11-08T03:50:52.220Z,31.67
2022-11-08T03:53:19.104Z,25.38
2022-11-08T03:55:46.119Z,37.15
2022-11-08T03:58:12.918Z,30.27
2022-11-08T04:00:39.892Z,31.17
2022-11-08T04:03:06.632Z,32.00
2022-11-08T04:05:33.630Z,24.17
2022-11-08T04:08:01.780Z,23.17
2022-11-08T04:10:28.774Z,34.15
2022-11-08T04:13:17.188Z,34.47
2022-11-08T04:16:02.852Z,30.58
2022-11-08T04:18:48.131Z,26.27
2022-11-08T04:21:33.782Z,27.23
2022-11-08T04:24:00.527Z,24.92
2022-11-08T04:26:27.540Z,27.88
2022-11-08T04:28:54.350Z,26.17
2022-11-08T04:31:21.218Z,27.70
2022-11-08T04:33:48.013Z,27.05
2022-11-08T04:36:16.690Z,26.92
2022-11-08T04:38:43.767Z,18.75
2022-11-08T04:41:13.083Z,17.55
2022-11-08T04:43:40.393Z,16.13
2022-11-08T04:46:13.107Z,17.25
2022-11-08T04:48:40.368Z,20.65
2022-11-08T04:51:19.038Z,16.65
2022-11-08T04:53:46.562Z,14.30
2022-11-08T04:56:16.973Z,11.43
2022-11-08T04:58:45.804Z,12.40
2022-11-08T05:01:15.660Z,15.65
2022-11-08T05:03:43.137Z,5.85
2022-11-08T05:06:16.567Z,5.72
2022-11-08T05:08:43.985Z,3.40
2022-11-08T05:11:13.664Z,2.45
2022-11-08T05:13:41.290Z,3.53
2022-11-08T05:16:16.425Z,1.77
2022-11-08T05:19:01.577Z,2.15
2022-11-08T05:21:47.364Z,1.92
2022-11-08T05:24:16.792Z,3.25
2022-11-08T05:26:46.040Z,2.15
2022-11-08T05:29:14.765Z,0.82
2022-11-08T05:31:41.849Z,0.50
2022-11-08T05:34:26.952Z,2.28
2022-11-08T05:37:12.649Z,0.57
2022-11-08T05:39:39.411Z,2.40
2022-11-08T05:42:06.377Z,0.73
2022-11-08T05:44:33.147Z,0.88
2022-11-08T05:46:59.824Z,2.20
2022-11-08T05:49:26.632Z,1.25
2022-11-08T05:51:53.375Z,1.50
2022-11-08T05:54:20.150Z,2.03
2022-11-08T05:56:46.856Z,3.40
2022-11-08T05:59:13.602Z,1.00
2022-11-08T06:01:40.454Z,1.50
2022-11-08T06:04:07.594Z,0.35
2022-11-08T06:06:34.429Z,1.73
2022-11-08T06:09:01.304Z,1.15
2022-11-08T06:11:28.623Z,2.38
2022-11-08T06:13:55.961Z,2.28
2022-11-08T06:16:24.667Z,4.57
2022-11-08T06:18:51.440Z,0.45
2022-11-08T06:21:36.864Z,1.80
2022-11-08T06:24:03.926Z,3.13
2022-11-08T06:26:30.717Z,2.63
2022-11-08T06:28:57.459Z,1.58
2022-11-08T06:31:24.408Z,1.95
2022-11-08T06:33:51.240Z,1.52
2022-11-08T06:36:18.417Z,1.45
2022-11-08T06:38:45.270Z,3.20
2022-11-08T06:41:19.510Z,1.33
2022-11-08T06:44:04.773Z,1.38
2022-11-08T06:46:31.488Z,1.95
2022-11-08T06:48:58.405Z,1.45
2022-11-08T06:51:25.232Z,5.88
2022-11-08T06:53:52.017Z,2.55
2022-11-08T06:56:18.843Z,2.92
2022-11-08T06:58:45.674Z,3.28
2022-11-08T07:01:13.432Z,1.10
2022-11-08T07:03:59.068Z,1.65
2022-11-08T07:06:25.914Z,2.25
2022-11-08T07:08:52.669Z,3.15
2022-11-08T07:11:19.801Z,4.65
2022-11-08T07:13:47.576Z,2.38
2022-11-08T07:16:14.853Z,2.05
2022-11-08T07:18:41.954Z,1.40
2022-11-08T07:21:08.755Z,2.83
2022-11-08T07:23:35.478Z,2.03
2022-11-08T07:26:04.704Z,1.88
2022-11-08T07:28:31.956Z,2.13
2022-11-08T07:31:01.626Z,3.33
2022-11-08T07:33:28.738Z,2.63
2022-11-08T07:35:56.226Z,1.25
2022-11-08T07:38:23.517Z,2.50
2022-11-08T07:40:51.574Z,4.28
2022-11-08T07:43:18.427Z,1.95
2022-11-08T07:45:57.094Z,2.80
2022-11-08T07:48:25.174Z,2.20
2022-11-08T07:50:52.305Z,3.03
2022-11-08T07:53:19.764Z,1.88
2022-11-08T07:55:48.196Z,3.25
2022-11-08T07:58:15.660Z,1.35
2022-11-08T08:00:44.868Z,1.33
2022-11-08T08:03:14.408Z,1.77
2022-11-08T08:05:44.201Z,1.77
2022-11-08T08:08:13.289Z,0.80
2022-11-08T08:10:40.749Z,2.47
2022-11-08T08:13:07.761Z,1.65
2022-11-08T08:15:34.630Z,1.45
2022-11-08T08:18:21.676Z,2.10
2022-11-08T08:20:48.493Z,1.60
2022-11-08T08:23:52.861Z,0.52
2022-11-08T08:26:19.668Z,3.22
2022-11-08T08:28:46.423Z,4.40
2022-11-08T08:31:13.462Z,2.97
2022-11-08T08:33:40.582Z,6.05
2022-11-08T08:36:07.942Z,4.75
2022-11-08T08:38:38.682Z,1.50
2022-11-08T08:41:08.353Z,3.90
2022-11-08T08:43:35.053Z,3.10
2022-11-08T08:46:04.077Z,4.70
2022-11-08T08:48:31.504Z,5.57
2022-11-08T08:50:58.395Z,2.92
2022-11-08T08:53:25.273Z,4.65
2022-11-08T08:55:55.150Z,4.97
2022-11-08T08:58:22.796Z,5.97
2022-11-08T09:03:36.594Z,6.05
2022-11-08T09:06:03.830Z,7.13
2022-11-08T09:08:30.972Z,3.58
2022-11-08T09:10:59.950Z,3.67
2022-11-08T09:13:28.590Z,5.97
2022-11-08T09:15:55.720Z,9.82
2022-11-08T09:18:22.694Z,3.80
2022-11-08T09:20:50.233Z,6.68
2022-11-08T09:23:17.999Z,6.00
2022-11-08T09:26:03.584Z,4.20
2022-11-08T09:28:32.847Z,4.78
2022-11-08T09:31:04.846Z,5.47
2022-11-08T09:33:31.714Z,5.55
2022-11-08T09:36:03.124Z,8.45
2022-11-08T09:38:30.280Z,3.55
2022-11-08T09:41:05.576Z,4.75
2022-11-08T09:43:59.975Z,10.82
2022-11-08T09:46:37.104Z,8.32
2022-11-08T09:49:10.662Z,7.55
2022-11-08T09:51:37.811Z,12.63
2022-11-08T09:54:17.002Z,8.07
2022-11-08T09:57:05.463Z,5.75
2022-11-08T10:00:01.415Z,5.82
2022-11-08T10:02:28.541Z,6.28
2022-11-08T10:05:00.190Z,5.30
2022-11-08T10:07:45.377Z,10.80
2022-11-08T10:10:33.438Z,12.25
2022-11-08T10:13:31.221Z,11.40
2022-11-08T10:16:24.508Z,9.68
2022-11-08T10:19:08.005Z,9.18
2022-11-08T10:21:59.800Z,14.48
2022-11-08T10:24:37.460Z,10.27
2022-11-08T10:27:14.798Z,14.77
2022-11-08T10:29:45.093Z,11.23
2022-11-08T10:32:20.429Z,15.35
2022-11-08T10:35:03.248Z,8.65
2022-11-08T10:40:38.419Z,9.05
2022-11-08T10:43:35.624Z,9.15
2022-11-08T10:46:02.567Z,9.18
2022-11-08T10:48:32.914Z,14.43
2022-11-08T10:50:59.678Z,17.13
2022-11-08T10:53:30.219Z,11.35
2022-11-08T10:56:02.952Z,19.52
2022-11-08T10:58:33.312Z,15.93
2022-11-08T11:01:06.617Z,9.70
2022-11-08T11:03:33.863Z,9.32
2022-11-08T11:06:04.832Z,14.15
2022-11-08T11:08:32.525Z,14.88
2022-11-08T11:11:37.001Z,12.65
2022-11-08T11:14:07.369Z,15.65
2022-11-08T11:16:36.876Z,17.63
2022-11-08T11:19:06.446Z,19.33
2022-11-08T11:21:38.960Z,21.35
2022-11-08T11:24:19.377Z,17.92
2022-11-08T11:27:22.698Z,21.88
2022-11-08T11:29:49.534Z,15.45
2022-11-08T11:32:32.539Z,14.15
2022-11-08T11:35:02.440Z,18.83
2022-11-08T11:37:53.331Z,18.80
2022-11-08T11:40:38.059Z,24.00
2022-11-08T11:43:20.135Z,13.20
2022-11-08T11:46:01.796Z,13.70
2022-11-08T11:48:30.964Z,20.23
2022-11-08T11:50:59.183Z,18.58
2022-11-08T11:53:30.165Z,10.45
2022-11-08T11:56:09.360Z,14.57
2022-11-08T11:58:52.954Z,24.10
2022-11-08T12:01:31.825Z,16.30
2022-11-08T12:04:23.332Z,14.55
2022-11-08T12:07:22.159Z,9.57
2022-11-08T12:09:56.810Z,11.95
2022-11-08T12:12:48.236Z,8.77
2022-11-08T12:15:23.908Z,11.68
2022-11-08T12:17:56.680Z,7.40
2022-11-08T12:20:39.399Z,12.63
2022-11-08T12:23:24.700Z,14.15
2022-11-08T12:26:23.577Z,9.77
2022-11-08T12:29:21.245Z,14.80
2022-11-08T12:32:11.806Z,10.93
2022-11-08T12:35:02.344Z,14.55
2022-11-08T12:37:47.833Z,16.23
2022-11-08T12:40:14.886Z,16.05
2022-11-08T12:43:24.349Z,12.70
2022-11-08T12:45:51.170Z,17.85
2022-11-08T12:48:49.380Z,20.70
2022-11-08T12:51:37.978Z,22.88
2022-11-08T12:54:23.131Z,13.25
2022-11-08T12:56:52.668Z,16.42
2022-11-08T12:59:43.001Z,14.95
2022-11-08T13:02:18.752Z,20.20
2022-11-08T13:05:26.893Z,17.83
2022-11-08T13:08:15.753Z,23.85
2022-11-08T13:11:04.267Z,18.08
2022-11-08T13:13:50.544Z,16.13
2022-11-08T13:16:26.328Z,18.17
2022-11-08T13:18:55.840Z,27.25
2022-11-08T13:21:42.153Z,20.63
2022-11-08T13:24:38.419Z,18.13
2022-11-08T13:27:20.986Z,22.08
2022-11-08T13:29:47.804Z,16.77
2022-11-08T13:32:43.982Z,21.65
2022-11-08T13:35:34.441Z,21.90
2022-11-08T13:38:42.637Z,22.08
2022-11-08T13:41:12.453Z,21.13
2022-11-08T13:43:39.824Z,20.88
2022-11-08T13:46:44.280Z,18.23
2022-11-08T13:49:17.551Z,14.68
2022-11-08T13:51:46.120Z,16.95
2022-11-08T13:54:21.768Z,15.93
2022-11-08T13:56:59.545Z,19.42
2022-11-08T13:59:33.014Z,15.85
2022-11-08T14:02:19.916Z,20.77
2022-11-08T14:04:46.972Z,18.33
2022-11-08T14:07:52.237Z,18.08
2022-11-08T14:10:18.954Z,11.13
2022-11-08T14:12:59.669Z,21.90
2022-11-08T14:15:33.626Z,21.67
2022-11-08T14:18:06.037Z,14.20
2022-11-08T14:20:36.530Z,16.23
2022-11-08T14:23:21.295Z,15.07
2022-11-08T14:25:54.500Z,14.00
2022-11-08T14:28:30.207Z,17.05
2022-11-08T14:30:58.548Z,19.13
2022-11-08T14:33:27.899Z,15.48
2022-11-08T14:36:03.522Z,14.50
2022-11-08T14:38:53.170Z,22.52
2022-11-08T14:41:25.701Z,13.07
2022-11-08T14:44:14.383Z,20.92
2022-11-08T14:46:41.338Z,15.27
2022-11-08T14:49:31.581Z,23.00
2022-11-08T14:52:07.668Z,12.13
2022-11-08T14:55:23.973Z,15.85
2022-11-08T14:57:51.009Z,16.65
2022-11-08T15:00:21.082Z,17.65
2022-11-08T15:03:00.966Z,14.30
2022-11-08T15:05:56.458Z,20.75
2022-11-08T15:08:27.629Z,13.93
2022-11-08T15:11:02.088Z,17.65
2022-11-08T15:13:32.256Z,21.30
2022-11-08T15:16:05.024Z,16.02
2022-11-08T15:18:50.416Z,15.23
2022-11-08T15:21:30.754Z,17.20
2022-11-08T15:24:13.677Z,18.25
2022-11-08T15:26:59.755Z,13.63
2022-11-08T15:29:26.677Z,20.20
2022-11-08T15:32:01.211Z,17.75
2022-11-08T15:34:37.244Z,12.50
2022-11-08T15:37:27.775Z,16.08
2022-11-08T15:39:55.481Z,13.55
2022-11-08T15:42:22.584Z,18.83
2022-11-08T15:45:21.886Z,16.83
2022-11-08T15:47:49.512Z,18.40
2022-11-08T15:50:31.419Z,23.70
2022-11-08T15:53:01.919Z,19.55
2022-11-08T15:55:52.116Z,17.52
2022-11-08T15:58:31.610Z,24.98
2022-11-08T16:01:00.316Z,15.50
2022-11-08T16:03:27.521Z,18.85
2022-11-08T16:05:54.432Z,18.30
2022-11-08T16:08:21.376Z,20.98
2022-11-08T16:10:54.240Z,22.25
2022-11-08T16:13:27.169Z,16.98
2022-11-08T16:15:54.787Z,19.27
2022-11-08T16:18:22.161Z,12.23
2022-11-08T16:20:48.999Z,18.85
2022-11-08T16:23:16.050Z,12.15
2022-11-08T16:25:49.076Z,12.43
2022-11-08T16:28:23.746Z,16.77
2022-11-08T16:30:51.012Z,16.67
2022-11-08T16:33:28.685Z,14.05
2022-11-08T16:35:57.778Z,12.23
2022-11-08T16:38:28.985Z,17.10
2022-11-08T16:41:14.536Z,14.27
2022-11-08T16:43:41.265Z,15.05
2022-11-08T16:46:08.038Z,19.30
2022-11-08T16:48:37.645Z,11.77
2022-11-08T16:51:07.205Z,12.85
2022-11-08T16:53:35.418Z,13.05
2022-11-08T17:01:34.418Z,14.60
2022-11-08T17:06:46.213Z,13.35
2022-11-08T17:09:12.932Z,20.88
2022-11-08T17:11:40.842Z,17.50
2022-11-08T17:14:10.650Z,14.50
2022-11-08T17:16:37.474Z,14.98
2022-11-08T17:19:04.859Z,11.15
2022-11-08T17:21:44.770Z,12.10
2022-11-08T17:24:17.024Z,12.88
2022-11-08T17:26:48.004Z,13.00
2022-11-08T17:29:14.752Z,15.88
2022-11-08T17:32:00.345Z,19.30
2022-11-08T17:34:27.407Z,22.45
2022-11-08T17:36:54.490Z,14.30
2022-11-08T17:39:21.337Z,15.05
2022-11-08T17:41:48.187Z,14.40
2022-11-08T17:44:14.970Z,12.25
2022-11-08T17:46:41.822Z,17.58
2022-11-08T17:49:08.641Z,20.60
2022-11-08T17:51:36.705Z,18.75
2022-11-08T17:54:03.711Z,16.92
2022-11-08T17:56:49.774Z,10.88
2022-11-08T17:59:35.060Z,19.23
2022-11-08T18:02:20.870Z,15.43
2022-11-08T18:05:08.013Z,14.38
2022-11-08T18:07:35.135Z,13.13
2022-11-08T18:10:20.482Z,17.10
2022-11-08T18:12:47.360Z,16.55
2022-11-08T18:15:14.077Z,14.98
2022-11-08T18:17:40.877Z,11.93
2022-11-08T18:20:26.833Z,11.45
2022-11-08T18:26:16.064Z,7.00
2022-11-08T18:28:44.242Z,7.32
2022-11-08T18:31:13.805Z,8.43
2022-11-08T18:33:41.864Z,6.55
2022-11-08T18:36:20.543Z,6.70
2022-11-08T18:39:06.572Z,7.50
2022-11-08T18:41:34.125Z,9.75
2022-11-08T18:47:22.859Z,5.55
2022-11-08T18:50:08.566Z,7.75
2022-11-08T18:52:36.692Z,7.90
2022-11-08T18:55:05.337Z,5.15
2022-11-08T18:57:51.540Z,6.82
2022-11-08T19:00:18.512Z,19.05
2022-11-08T19:02:45.247Z,6.40
2022-11-08T19:05:12.092Z,5.28
2022-11-08T19:07:57.670Z,5.70
2022-11-08T19:10:24.559Z,5.57
2022-11-08T19:12:51.271Z,8.98
2022-11-08T19:18:03.425Z,7.25
2022-11-08T19:20:30.522Z,7.32
2022-11-08T19:23:18.233Z,8.98
2022-11-08T19:25:53.609Z,12.27
2022-11-08T19:28:20.600Z,7.25
2022-11-08T19:30:54.260Z,3.92
2022-11-08T19:33:25.977Z,3.15
2022-11-08T19:35:53.470Z,6.53
2022-11-08T19:38:21.864Z,4.85
2022-11-08T19:40:48.957Z,3.35
2022-11-08T19:43:17.099Z,3.72
2022-11-08T19:48:51.087Z,6.28
2022-11-08T19:51:20.781Z,4.57
2022-11-08T19:54:08.129Z,4.55
2022-11-08T19:57:04.336Z,4.15
2022-11-08T20:02:09.339Z,2.95
2022-11-08T20:04:36.455Z,4.97
2022-11-08T20:10:06.949Z,3.90
2022-11-08T20:12:33.801Z,4.40
2022-11-08T20:15:00.571Z,1.90
2022-11-08T20:17:27.520Z,7.78
2022-11-08T20:19:54.267Z,5.63
2022-11-08T20:22:21.042Z,3.58
2022-11-08T20:24:47.769Z,5.45
2022-11-08T20:27:14.579Z,16.00
2022-11-08T20:29:41.369Z,5.47
2022-11-08T20:38:36.987Z,2.55
2022-11-08T20:43:49.600Z,5.50
2022-11-08T20:46:38.124Z,4.03
2022-11-08T20:49:06.248Z,6.63
2022-11-08T20:51:51.886Z,7.90
2022-11-08T20:54:18.689Z,8.95
2022-11-08T20:56:45.372Z,6.32
2022-11-08T20:59:12.624Z,3.47
2022-11-08T21:01:39.454Z,7.50
2022-11-08T21:04:06.376Z,4.13
2022-11-08T21:06:36.452Z,4.88
2022-11-08T21:09:26.150Z,5.45
2022-11-08T21:11:51.950Z,3.75
2022-11-08T21:14:18.747Z,4.72
2022-11-08T21:17:14.767Z,4.45
2022-11-08T21:19:32.710Z,7.35
2022-11-08T21:22:14.917Z,4.25
2022-11-08T21:24:43.179Z,7.50
2022-11-08T21:27:47.565Z,7.50
2022-11-08T21:33:20.469Z,3.92
2022-11-08T21:35:51.809Z,3.25
2022-11-08T21:38:19.711Z,4.78
2022-11-08T21:40:47.987Z,6.95
2022-11-08T21:43:38.655Z,4.57
2022-11-08T21:46:23.160Z,7.63
2022-11-08T21:49:13.301Z,7.43
2022-11-08T21:51:40.577Z,4.30
2022-11-08T21:54:08.413Z,4.32
2022-11-08T21:56:35.216Z,5.60
2022-11-08T21:59:20.844Z,4.07
2022-11-08T22:01:48.148Z,4.20
2022-11-08T22:04:33.708Z,5.75
2022-11-08T22:07:00.555Z,4.97
2022-11-08T22:09:27.582Z,3.90
2022-11-08T22:11:54.412Z,6.18
2022-11-08T22:14:21.169Z,4.75
2022-11-08T22:16:48.658Z,2.88
2022-11-08T22:19:34.737Z,1.85
2022-11-08T22:22:02.786Z,7.22
2022-11-08T22:24:29.521Z,5.20
2022-11-08T22:27:14.768Z,11.18
2022-11-08T22:29:41.840Z,3.03
2022-11-08T22:32:08.725Z,1.50
2022-11-08T22:34:35.578Z,3.53
2022-11-08T22:37:02.364Z,3.38
2022-11-08T22:39:29.195Z,4.65
2022-11-08T22:41:56.082Z,4.55
2022-11-08T22:44:23.098Z,2.85
2022-11-08T22:46:49.817Z,2.35
2022-11-08T22:49:16.853Z,3.88
2022-11-08T22:51:44.487Z,3.60
2022-11-08T22:54:11.541Z,1.67
2022-11-08T22:56:40.260Z,3.30
2022-11-08T22:59:07.172Z,1.02
2022-11-08T23:01:34.518Z,2.92
2022-11-08T23:04:01.376Z,1.33
2022-11-08T23:06:28.228Z,2.88
2022-11-08T23:08:55.271Z,6.32
2022-11-08T23:11:40.761Z,4.93
2022-11-08T23:14:32.287Z,1.15
2022-11-08T23:17:21.032Z,4.55
2022-11-08T23:20:06.305Z,2.30
2022-11-08T23:22:51.636Z,3.72
2022-11-08T23:25:18.738Z,5.75
2022-11-08T23:28:03.812Z,3.50
2022-11-08T23:30:49.463Z,3.70
2022-11-08T23:33:16.463Z,2.13
2022-11-08T23:36:03.409Z,2.00
2022-11-08T23:38:30.326Z,1.00
2022-11-08T23:41:17.634Z,2.67
2022-11-08T23:44:02.821Z,2.30
2022-11-08T23:46:29.627Z,2.60
2022-11-08T23:48:56.414Z,5.97
2022-11-08T23:51:23.260Z,1.85
2022-11-08T23:53:50.079Z,3.10
2022-11-08T23:56:25.741Z,0.43
2022-11-08T23:58:58.778Z,4.47
